Time;durP1;ratioP1;P1;durP2;ratioP2;P2;SDS_P1;SDS_P2;PMS_P1;PMS_P2;Temp;Humidity;BMP_temperature;BMP_pressure;BME280_temperature;BME280_humidity;BME280_pressure;Samples;Min_cycle;Max_cycle;Signal;HPM_P1;HPM_P2
2022/10/09 00:01:21;;;;;;;11.65;9.40;;;;;;;13.21;72.06;100296.00;4486205;32;34152;-79
2022/10/09 00:03:50;;;;;;;13.32;9.75;;;;;;;12.95;73.12;100301.13;4471660;32;33913;-79
2022/10/09 00:06:27;;;;;;;15.45;9.95;;;;;;;12.78;73.87;100301.13;4471803;32;33478;-80
2022/10/09 00:08:55;;;;;;;13.25;8.95;;;;;;;12.95;73.06;100297.56;4486121;32;34045;-81
2022/10/09 00:11:24;;;;;;;12.25;9.30;;;;;;;13.55;71.12;100296.75;4485777;32;34956;-80
2022/10/09 00:13:53;;;;;;;13.60;10.65;;;;;;;13.37;71.78;100299.78;4485807;31;35016;-80
2022/10/09 00:16:21;;;;;;;13.77;9.80;;;;;;;13.27;72.99;100290.38;4485650;32;33688;-80
2022/10/09 00:18:49;;;;;;;15.63;9.95;;;;;;;13.41;73.03;100284.56;4489445;31;34116;-79
2022/10/09 00:21:23;;;;;;;12.70;10.15;;;;;;;13.18;73.93;100283.72;4501747;31;34246;-78
2022/10/09 00:23:52;;;;;;;13.10;9.57;;;;;;;13.28;73.27;100285.75;4501166;31;35219;-78
2022/10/09 00:26:20;;;;;;;13.38;9.50;;;;;;;13.61;72.30;100284.00;4487457;31;33606;-79
2022/10/09 00:28:48;;;;;;;16.12;10.00;;;;;;;13.48;72.45;100286.03;4501783;31;34105;-81
2022/10/09 00:31:16;;;;;;;13.57;10.50;;;;;;;13.31;73.74;100275.19;4500845;31;34257;-80
2022/10/09 00:33:44;;;;;;;15.18;10.20;;;;;;;13.43;73.49;100277.78;4501564;31;33820;-78
2022/10/09 00:36:14;;;;;;;14.30;10.50;;;;;;;13.20;74.57;100278.84;4494052;31;33430;-79
2022/10/09 00:38:41;;;;;;;13.25;9.52;;;;;;;13.30;74.28;100270.00;4471489;32;33603;-78
2022/10/09 00:41:13;;;;;;;13.60;10.13;;;;;;;13.33;74.19;100267.59;4485766;32;34313;-80
2022/10/09 00:43:49;;;;;;;14.27;10.52;;;;;;;13.56;73.33;100262.12;4471773;32;33987;-80
2022/10/09 00:46:24;;;;;;;14.15;10.90;;;;;;;13.66;73.12;100262.22;4485599;32;34245;-80
2022/10/09 00:48:54;;;;;;;;;;;;;;;13.85;72.89;100257.25;4471869;32;33898;-80
2022/10/09 00:51:22;;;;;;;14.13;11.23;;;;;;;14.01;72.64;100255.47;4485408;31;35304;-79
2022/10/09 00:53:49;;;;;;;17.35;13.18;;;;;;;13.71;73.71;100256.81;4476746;31;33962;-80
2022/10/09 00:56:17;;;;;;;18.00;14.07;;;;;;;13.59;74.81;100246.06;4487265;31;34353;-80
2022/10/09 00:58:49;;;;;;;17.62;13.55;;;;;;;13.71;75.01;100248.62;4487504;31;34086;-80
2022/10/09 01:01:16;;;;;;;19.45;14.55;;;;;;;13.41;76.70;100249.12;4487120;31;34066;-79
2022/10/09 01:03:44;;;;;;;20.52;15.85;;;;;;;13.87;75.33;100253.16;4493872;31;34888;-79
2022/10/09 01:06:19;;;;;;;19.50;14.60;;;;;;;14.04;74.82;100249.50;4471416;32;33788;-79
2022/10/09 01:08:54;;;;;;;20.70;14.50;;;;;;;13.97;75.17;100243.44;4471473;32;34634;-79
2022/10/09 01:11:54;;;;;;;;;;;;;;;13.82;75.88;100242.22;4471504;32;34235;-80
2022/10/09 01:14:27;;;;;;;21.40;14.27;;;;;;;14.12;74.25;100244.41;4467186;32;34250;-79
2022/10/09 01:17:00;;;;;;;20.25;14.45;;;;;;;14.35;72.89;100242.38;4471204;32;34331;-79
2022/10/09 01:19:42;;;;;;;19.33;15.25;;;;;;;14.35;72.84;100247.84;4493152;31;34111;-80
2022/10/09 01:22:36;;;;;;;20.92;15.45;;;;;;;14.59;72.12;100245.59;4500974;31;34921;-79
2022/10/09 01:25:06;;;;;;;20.83;16.08;;;;;;;14.13;74.18;100246.03;4486085;31;34684;-79
2022/10/09 01:27:35;;;;;;;21.35;16.62;;;;;;;14.02;75.17;100243.50;4486973;31;33499;-80
2022/10/09 01:30:06;;;;;;;21.95;17.15;;;;;;;14.30;74.71;100250.53;4486697;31;34624;-79
2022/10/09 01:32:37;;;;;;;22.08;17.08;;;;;;;14.18;75.25;100252.62;4486744;31;35012;-80
2022/10/09 01:35:05;;;;;;;24.05;18.23;;;;;;;14.40;74.46;100257.97;4501362;31;33984;-80
2022/10/09 01:37:33;;;;;;;25.30;19.10;;;;;;;14.33;74.87;100258.19;4483636;32;34376;-79
2022/10/09 01:40:01;;;;;;;26.27;19.75;;;;;;;14.51;74.34;100260.53;4483954;32;33800;-81
2022/10/09 01:42:30;;;;;;;24.42;17.58;;;;;;;14.41;74.64;100259.62;4483087;32;34263;-80
2022/10/09 01:44:57;;;;;;;26.30;17.42;;;;;;;14.40;74.51;100261.53;4483549;32;33760;-81
2022/10/09 01:47:25;;;;;;;24.23;18.98;;;;;;;14.04;75.96;100263.97;4485167;32;34150;-79
2022/10/09 01:50:26;;;;;;;25.27;18.90;;;;;;;14.30;74.74;100256.81;4483929;32;34106;-80
2022/10/09 01:53:05;;;;;;;24.55;18.60;;;;;;;14.70;73.40;100265.59;4478628;32;34104;-81
2022/10/09 01:55:44;;;;;;;26.60;18.92;;;;;;;14.12;75.93;100263.50;4484642;32;33672;-80
2022/10/09 01:58:27;;;;;;;22.85;17.62;;;;;;;14.46;74.67;100256.94;4483556;32;33670;-81
2022/10/09 02:01:01;;;;;;;24.17;18.80;;;;;;;14.34;75.04;100257.09;4481528;32;34762;-80
2022/10/09 02:03:29;;;;;;;23.85;18.48;;;;;;;14.38;75.10;100258.22;4483730;32;34056;-80
2022/10/09 02:05:57;;;;;;;24.10;19.58;;;;;;;14.57;74.44;100264.94;4467911;32;33487;-80
2022/10/09 02:08:24;;;;;;;25.90;19.83;;;;;;;14.64;74.02;100252.97;4468027;32;33504;-79
2022/10/09 02:10:55;;;;;;;25.62;19.27;;;;;;;14.23;75.60;100258.94;4470774;32;34011;-79
2022/10/09 02:13:22;;;;;;;24.35;18.77;;;;;;;14.51;75.13;100256.97;4483357;32;33930;-79
2022/10/09 02:15:59;;;;;;;25.37;19.42;;;;;;;14.56;75.01;100266.06;4483576;32;33905;-78
2022/10/09 02:18:35;;;;;;;22.65;17.90;;;;;;;14.33;76.69;100266.38;4482593;32;33610;-78
2022/10/09 02:21:09;;;;;;;28.95;19.20;;;;;;;14.49;76.33;100272.78;4484663;32;33975;-79
2022/10/09 02:23:39;;;;;;;27.83;20.23;;;;;;;14.51;76.16;100278.81;4484659;32;34946;-79
2022/10/09 02:26:07;;;;;;;27.33;20.35;;;;;;;14.45;76.69;100279.84;4483247;32;34684;-79
2022/10/09 02:28:35;;;;;;;25.77;20.12;;;;;;;14.61;76.29;100280.81;4484537;32;33395;-79
2022/10/09 02:31:22;;;;;;;27.23;19.98;;;;;;;14.56;76.55;100276.16;4481495;32;34080;-79
2022/10/09 02:33:54;;;;;;;27.10;20.80;;;;;;;14.87;75.63;100271.69;4483237;32;34904;-78
2022/10/09 02:36:22;;;;;;;28.23;21.55;;;;;;;14.68;76.42;100282.22;4490532;31;33864;-78
2022/10/09 02:38:50;;;;;;;26.37;20.25;;;;;;;14.54;76.83;100283.75;4499870;31;34319;-79
2022/10/09 02:41:17;;;;;;;26.37;20.58;;;;;;;14.54;77.18;100283.75;4498797;31;33684;-79
2022/10/09 02:43:45;;;;;;;28.58;21.27;;;;;;;14.62;76.79;100294.22;4499018;31;35105;-79
2022/10/09 02:46:13;;;;;;;29.05;20.92;;;;;;;14.47;77.17;100302.25;4499679;31;34274;-79
2022/10/09 02:48:40;;;;;;;27.45;20.70;;;;;;;14.47;77.14;100300.38;4485128;31;33759;-79
2022/10/09 02:51:08;;;;;;;28.25;21.52;;;;;;;14.66;76.52;100303.50;4499840;31;34102;-79
2022/10/09 02:53:35;;;;;;;26.08;20.10;;;;;;;14.93;75.62;100305.34;4499812;31;34189;-79
2022/10/09 02:56:03;;;;;;;28.90;21.17;;;;;;;14.70;76.61;100301.09;4502040;31;34100;-79
2022/10/09 02:58:32;;;;;;;29.10;21.30;;;;;;;14.69;77.01;100305.75;4501987;31;34289;-79
2022/10/09 03:00:59;;;;;;;29.10;20.40;;;;;;;14.71;77.07;100319.16;4501477;31;34848;-79
2022/10/09 03:03:27;;;;;;;32.00;22.65;;;;;;;14.48;78.18;100314.84;4487948;31;34240;-80
2022/10/09 03:06:11;;;;;;;28.48;21.52;;;;;;;15.04;75.86;100319.91;4501894;31;33926;-80
2022/10/09 03:08:41;;;;;;;30.87;21.90;;;;;;;14.80;77.05;100320.28;4485649;31;34405;-79
2022/10/09 03:11:09;;;;;;;28.70;20.15;;;;;;;14.52;78.61;100324.97;4487069;31;33923;-79
2022/10/09 03:13:38;;;;;;;31.48;22.05;;;;;;;14.71;78.27;100316.41;4501228;31;34310;-79
2022/10/09 03:16:19;;;;;;;30.30;21.75;;;;;;;14.62;78.39;100321.53;4501445;31;34052;-78
2022/10/09 03:18:48;;;;;;;29.60;21.55;;;;;;;14.67;78.69;100321.56;4497973;31;33538;-77
2022/10/09 03:21:21;;;;;;;28.73;21.37;;;;;;;14.83;78.01;100317.03;4501346;31;34738;-79
2022/10/09 03:23:49;;;;;;;31.00;22.05;;;;;;;14.86;78.06;100326.59;4501232;31;34270;-79
2022/10/09 03:26:20;;;;;;;32.13;21.92;;;;;;;14.81;78.48;100330.12;4501332;31;33771;-79
2022/10/09 03:28:49;;;;;;;31.90;21.83;;;;;;;14.97;78.10;100331.06;4499130;31;34240;-79
2022/10/09 03:31:19;;;;;;;27.50;20.30;;;;;;;14.76;78.66;100328.19;4500728;31;34053;-80
2022/10/09 03:34:07;;;;;;;31.40;22.10;;;;;;;14.95;77.63;100325.84;4490104;31;33871;-80
2022/10/09 03:36:34;;;;;;;29.63;21.35;;;;;;;14.82;78.93;100328.22;4499784;31;35081;-80
2022/10/09 03:39:02;;;;;;;30.85;22.00;;;;;;;15.23;76.67;100328.47;4500964;31;33282;-81
2022/10/09 03:41:29;;;;;;;31.33;21.85;;;;;;;15.04;76.98;100341.75;4501276;31;33913;-80
2022/10/09 03:43:57;;;;;;;32.65;22.25;;;;;;;14.60;79.16;100333.78;4500821;31;33788;-82
2022/10/09 03:46:24;;;;;;;28.08;20.90;;;;;;;14.69;79.11;100319.41;4501597;31;34634;-80
2022/10/09 03:48:52;;;;;;;32.13;21.05;;;;;;;14.81;78.64;100335.59;4501789;31;33647;-81
2022/10/09 03:51:19;;;;;;;32.35;21.62;;;;;;;15.19;76.78;100341.84;4501534;31;33620;-80
2022/10/09 03:53:46;;;;;;;32.85;22.08;;;;;;;14.85;78.22;100344.91;4502087;31;34255;-81
2022/10/09 03:56:14;;;;;;;30.92;22.27;;;;;;;14.97;78.00;100348.28;4501590;31;34645;-80
2022/10/09 03:58:41;;;;;;;33.08;22.37;;;;;;;14.74;79.54;100360.38;4501476;31;33402;-82
2022/10/09 04:01:09;;;;;;;35.20;23.17;;;;;;;14.90;79.28;100352.31;4501586;31;34917;-81
2022/10/09 04:03:37;;;;;;;33.70;23.23;;;;;;;14.64;80.65;100349.37;4501655;31;34133;-78
2022/10/09 04:06:04;;;;;;;35.83;23.58;;;;;;;14.57;81.07;100346.88;4500980;31;33992;-84
2022/10/09 04:08:32;;;;;;;32.45;23.12;;;;;;;14.78;80.04;100355.25;4501660;31;34319;-83
2022/10/09 04:11:00;;;;;;;32.90;22.80;;;;;;;14.56;81.41;100353.44;4501855;31;34050;-83
2022/10/09 04:13:27;;;;;;;31.52;22.83;;;;;;;14.87;79.76;100350.94;4501522;31;34329;-79
2022/10/09 04:15:55;;;;;;;31.67;22.67;;;;;;;15.00;79.29;100346.09;4501923;31;33525;-79
2022/10/09 04:18:23;;;;;;;32.58;22.75;;;;;;;15.12;78.52;100347.53;4487374;31;33410;-79
2022/10/09 04:20:52;;;;;;;33.78;22.75;;;;;;;15.21;77.89;100345.13;4501432;31;34901;-80
2022/10/09 04:23:22;;;;;;;29.55;21.40;;;;;;;15.15;78.25;100347.00;4501744;31;34290;-89
2022/10/09 04:25:54;;;;;;;31.12;22.50;;;;;;;15.13;78.55;100356.56;4501292;31;34205;-85
2022/10/09 04:28:22;;;;;;;34.90;23.33;;;;;;;15.06;78.76;100340.41;4487403;31;34513;-78
2022/10/09 04:30:50;;;;;;;33.70;21.95;;;;;;;15.08;78.47;100340.16;4501453;31;34134;-87
2022/10/09 04:33:18;;;;;;;34.15;22.27;;;;;;;15.38;76.92;100361.38;4501278;31;34062;-79
2022/10/09 04:35:49;;;;;;;29.15;21.10;;;;;;;15.31;77.48;100366.22;4501230;31;34503;-78
2022/10/09 04:38:17;;;;;;;32.58;22.42;;;;;;;15.04;78.52;100377.28;4501593;31;33488;-87
2022/10/09 04:41:04;;;;;;;30.98;21.20;;;;;;;14.99;79.05;100375.34;4501269;31;34759;-79
2022/10/09 04:43:33;;;;;;;31.80;21.58;;;;;;;15.24;77.81;100363.72;4487046;31;34076;-87
2022/10/09 04:46:08;;;;;;;35.03;22.30;;;;;;;14.86;79.78;100389.44;4501277;31;33674;-79
2022/10/09 04:48:41;;;;;;;32.28;21.77;;;;;;;15.14;78.92;100394.56;4487253;31;34546;-79
2022/10/09 04:51:09;;;;;;;34.05;21.52;;;;;;;15.07;78.99;100399.41;4501102;31;34551;-87
2022/10/09 04:53:38;;;;;;;33.38;22.80;;;;;;;14.88;80.42;100426.34;4501406;31;35071;-78
2022/10/09 04:56:09;;;;;;;31.48;21.02;;;;;;;14.79;80.85;100427.91;4487132;31;34422;-78
2022/10/09 04:58:39;;;;;;;32.55;22.27;;;;;;;14.70;81.79;100426.72;4501057;31;34298;-79
2022/10/09 05:01:08;;;;;;;32.50;21.45;;;;;;;14.93;80.55;100423.66;4501251;31;33662;-81
2022/10/09 05:03:37;;;;;;;34.08;21.75;;;;;;;14.83;81.48;100428.22;4495496;31;34955;-75
2022/10/09 05:06:07;;;;;;;34.28;21.65;;;;;;;14.48;83.66;100424.03;4496951;31;33954;-74
2022/10/09 05:08:35;;;;;;;32.65;21.15;;;;;;;14.95;80.74;100418.75;4501477;31;33571;-79
2022/10/09 05:11:05;;;;;;;31.10;20.65;;;;;;;14.91;81.38;100417.63;4501042;31;34896;-75
2022/10/09 05:13:38;;;;;;;32.40;20.83;;;;;;;15.44;78.75;100414.97;4486746;31;34967;-78
2022/10/09 05:16:08;;;;;;;31.27;20.90;;;;;;;15.38;78.27;100408.66;4500796;31;34121;-78
2022/10/09 05:18:40;;;;;;;33.80;22.02;;;;;;;15.23;79.05;100433.16;4500986;31;34459;-80
2022/10/09 05:21:08;;;;;;;28.85;19.58;;;;;;;15.43;78.09;100418.81;4501182;31;34754;-76
2022/10/09 05:23:36;;;;;;;30.52;20.88;;;;;;;15.33;78.52;100411.38;4501005;31;35017;-75
2022/10/09 05:26:07;;;;;;;28.62;19.70;;;;;;;15.18;78.98;100433.13;4501209;31;34632;-76
2022/10/09 05:28:35;;;;;;;26.27;18.55;;;;;;;15.27;78.54;100423.34;4501090;31;33631;-75
2022/10/09 05:31:04;;;;;;;30.95;20.50;;;;;;;15.31;78.29;100420.91;4486796;31;33621;-75
2022/10/09 05:33:31;;;;;;;29.12;19.48;;;;;;;15.38;78.05;100425.06;4486942;31;34954;-76
2022/10/09 05:36:01;;;;;;;30.92;20.62;;;;;;;15.34;77.80;100420.41;4486638;31;34809;-81
2022/10/09 05:38:29;;;;;;;32.15;20.23;;;;;;;15.24;78.57;100428.53;4486425;31;33695;-80
2022/10/09 05:41:01;;;;;;;29.55;20.27;;;;;;;15.35;77.80;100420.09;4498784;31;33963;-73
2022/10/09 05:43:34;;;;;;;32.72;19.83;;;;;;;15.48;77.28;100424.28;4500802;31;33930;-73
2022/10/09 05:46:10;;;;;;;31.17;20.75;;;;;;;15.17;78.54;100434.22;4501014;31;34910;-74
2022/10/09 05:48:41;;;;;;;30.27;21.15;;;;;;;14.46;82.23;100439.84;4500768;31;33451;-73
2022/10/09 05:51:18;;;;;;;33.15;20.65;;;;;;;15.10;79.56;100431.72;4500193;31;34916;-74
2022/10/09 05:53:46;;;;;;;29.60;20.12;;;;;;;14.73;80.82;100426.22;4500813;31;34134;-72
2022/10/09 05:56:17;;;;;;;31.98;19.92;;;;;;;15.11;79.10;100435.25;4500631;31;34010;-76
2022/10/09 05:58:52;;;;;;;30.52;20.25;;;;;;;15.37;77.86;100433.53;4486462;31;34286;-76
2022/10/09 06:01:21;;;;;;;30.33;20.60;;;;;;;15.72;75.96;100438.41;4500299;31;33747;-70
2022/10/09 06:03:50;;;;;;;30.52;18.30;;;;;;;15.49;76.95;100436.87;4499417;31;33962;-72
2022/10/09 06:06:20;;;;;;;28.55;19.65;;;;;;;15.54;76.58;100436.91;4476155;31;34002;-72
2022/10/09 06:08:48;;;;;;;27.87;20.45;;;;;;;15.55;75.85;100435.00;4497151;31;33710;-72
2022/10/09 06:11:30;;;;;;;25.15;18.45;;;;;;;15.47;76.51;100439.06;4484939;31;33850;-73
2022/10/09 06:13:59;;;;;;;27.92;19.12;;;;;;;15.48;76.69;100443.44;4484269;32;34156;-71
2022/10/09 06:16:29;;;;;;;29.83;19.75;;;;;;;15.45;76.74;100443.16;4470376;32;33929;-72
2022/10/09 06:18:57;;;;;;;28.40;19.52;;;;;;;15.46;76.43;100444.78;4470628;32;34249;-71
2022/10/09 06:21:25;;;;;;;27.98;19.30;;;;;;;15.43;76.18;100459.81;4470162;32;33955;-72
2022/10/09 06:23:56;;;;;;;27.20;18.98;;;;;;;15.39;76.51;100464.16;4470219;32;34141;-74
2022/10/09 06:26:28;;;;;;;28.23;19.02;;;;;;;15.58;76.01;100468.13;4470353;32;34036;-70
2022/10/09 06:28:59;;;;;;;29.12;18.98;;;;;;;15.84;75.32;100476.50;4470636;32;34121;-73
2022/10/09 06:31:29;;;;;;;27.75;18.65;;;;;;;15.98;76.00;100472.19;4486357;32;34658;-70
2022/10/09 06:33:58;;;;;;;25.17;17.75;;;;;;;16.53;73.45;100480.03;4486818;32;34194;-74
2022/10/09 06:36:28;;;;;;;23.65;17.33;;;;;;;16.78;71.97;100479.25;4486079;32;34786;-78
2022/10/09 06:38:57;;;;;;;24.10;16.35;;;;;;;17.00;71.19;100485.34;4472401;32;33418;-77
2022/10/09 06:41:26;;;;;;;22.77;16.42;;;;;;;17.49;68.28;100486.66;4486359;32;34690;-80
2022/10/09 06:43:58;;;;;;;21.12;15.05;;;;;;;17.91;67.22;100485.50;4486392;32;33944;-79
2022/10/09 06:46:38;;;;;;;20.85;14.90;;;;;;;18.14;66.01;100492.28;4486328;32;34058;-77
2022/10/09 06:49:08;;;;;;;23.48;15.73;;;;;;;18.43;64.71;100488.84;4486195;32;34500;-83
2022/10/09 06:51:36;;;;;;;21.55;14.77;;;;;;;18.53;64.08;100494.31;4472272;32;34072;-79
2022/10/09 06:54:08;;;;;;;20.75;14.70;;;;;;;18.73;63.69;100498.84;4486353;32;34208;-77
2022/10/09 06:56:36;;;;;;;21.10;15.13;;;;;;;18.67;63.00;100504.66;4472611;32;34214;-74
2022/10/09 06:59:06;;;;;;;20.27;14.15;;;;;;;18.02;66.13;100498.09;4486294;32;34431;-76
2022/10/09 07:01:33;;;;;;;20.40;14.20;;;;;;;17.55;67.59;100499.28;4486021;32;34097;-75
2022/10/09 07:04:05;;;;;;;21.10;14.18;;;;;;;17.92;65.90;100500.06;4486324;32;34142;-76
2022/10/09 07:06:37;;;;;;;20.95;14.90;;;;;;;17.67;67.59;100499.00;4471622;31;33910;-76
2022/10/09 07:09:07;;;;;;;19.58;13.62;;;;;;;18.08;65.65;100498.91;4486072;32;33339;-75
2022/10/09 07:11:36;;;;;;;19.58;13.38;;;;;;;18.33;64.27;100506.19;4486227;32;34021;-75
2022/10/09 07:14:06;;;;;;;19.10;12.77;;;;;;;18.06;65.05;100512.09;4486179;32;35155;-76
2022/10/09 07:16:36;;;;;;;18.85;13.07;;;;;;;18.42;64.19;100514.66;4485897;32;33659;-81
2022/10/09 07:19:06;;;;;;;20.02;12.50;;;;;;;18.23;65.62;100517.25;4486196;32;34208;-76
2022/10/09 07:21:34;;;;;;;17.25;12.70;;;;;;;18.85;62.39;100506.75;4489294;31;34933;-77
2022/10/09 07:24:03;;;;;;;18.20;12.80;;;;;;;18.27;64.66;100520.25;4486974;31;34972;-78
2022/10/09 07:26:34;;;;;;;18.62;12.40;;;;;;;18.19;64.83;100522.47;4474056;31;33312;-77
2022/10/09 07:29:03;;;;;;;15.85;11.40;;;;;;;18.49;64.24;100523.44;4487420;31;33230;-75
2022/10/09 07:31:31;;;;;;;15.32;11.20;;;;;;;18.81;62.50;100520.28;4487325;31;34619;-76
2022/10/09 07:33:58;;;;;;;15.30;11.32;;;;;;;19.09;60.64;100517.84;4501627;31;34055;-76
2022/10/09 07:36:26;;;;;;;16.65;11.82;;;;;;;18.92;61.73;100518.28;4500979;31;33814;-76
2022/10/09 07:38:55;;;;;;;15.73;11.20;;;;;;;19.39;60.22;100516.78;4501581;31;33315;-74
2022/10/09 07:41:24;;;;;;;18.95;10.70;;;;;;;19.89;58.46;100522.09;4499348;31;33999;-76
2022/10/09 07:43:52;;;;;;;15.15;9.90;;;;;;;20.42;57.36;100523.97;4485556;31;33828;-76
2022/10/09 07:46:21;;;;;;;13.27;9.40;;;;;;;20.15;57.57;100533.66;4500799;31;33879;-79
2022/10/09 07:48:49;;;;;;;12.57;9.63;;;;;;;20.20;56.48;100524.50;4487544;31;33786;-77
2022/10/09 07:51:20;;;;;;;10.95;8.23;;;;;;;20.06;57.16;100527.12;4500708;31;33651;-76
2022/10/09 07:53:48;;;;;;;12.32;9.07;;;;;;;21.05;54.78;100520.03;4502075;31;34107;-73
2022/10/09 07:56:18;;;;;;;11.18;8.93;;;;;;;21.23;53.12;100523.88;4486959;31;33801;-74
2022/10/09 07:58:50;;;;;;;11.45;8.90;;;;;;;21.10;53.07;100522.72;4501549;31;34247;-79
2022/10/09 08:01:18;;;;;;;12.07;8.32;;;;;;;21.29;52.28;100520.75;4487263;31;33729;-74
2022/10/09 08:03:47;;;;;;;11.10;8.10;;;;;;;20.97;53.67;100529.00;4485557;32;34181;-77
2022/10/09 08:06:16;;;;;;;12.25;8.30;;;;;;;20.81;54.39;100520.12;4484199;32;34079;-80
2022/10/09 08:08:44;;;;;;;13.15;9.20;;;;;;;20.82;52.70;100525.37;4470274;32;33124;-76
2022/10/09 08:11:13;;;;;;;11.85;8.57;;;;;;;21.16;52.48;100516.00;4485175;32;34755;-73
2022/10/09 08:13:41;;;;;;;11.75;9.25;;;;;;;21.41;52.59;100516.69;4485740;32;34832;-74
2022/10/09 08:16:09;;;;;;;13.38;9.20;;;;;;;21.22;53.61;100523.06;4485156;32;33492;-73
2022/10/09 08:18:37;;;;;;;11.88;9.38;;;;;;;20.50;55.27;100526.06;4471165;32;33514;-79
2022/10/09 08:21:07;;;;;;;12.27;8.80;;;;;;;20.37;55.65;100522.09;4470707;32;33684;-81
2022/10/09 08:23:34;;;;;;;12.45;9.30;;;;;;;19.94;57.19;100513.78;4483578;31;34761;-72
2022/10/09 08:26:02;;;;;;;15.63;8.93;;;;;;;20.16;54.96;100518.75;4485163;32;33768;-74
2022/10/09 08:28:30;;;;;;;14.25;8.70;;;;;;;20.05;56.54;100518.06;4485532;32;34304;-74
2022/10/09 08:30:57;;;;;;;10.05;7.65;;;;;;;20.49;55.48;100521.66;4485200;32;33908;-74
2022/10/09 08:33:25;;;;;;;11.35;7.35;;;;;;;20.08;56.09;100520.22;4485503;32;34408;-73
2022/10/09 08:35:53;;;;;;;12.15;8.25;;;;;;;20.21;55.25;100523.38;4484944;32;35006;-72
2022/10/09 08:38:21;;;;;;;12.37;9.35;;;;;;;19.94;57.64;100527.56;4485360;32;33775;-73
2022/10/09 08:41:18;;;;;;;10.82;8.20;;;;;;;20.42;55.58;100534.97;4485248;32;33973;-73
2022/10/09 08:43:47;;;;;;;12.98;8.85;;;;;;;20.44;55.94;100530.81;4482977;31;35310;-75
2022/10/09 08:46:23;;;;;;;10.27;7.07;;;;;;;20.46;55.50;100542.34;4485130;32;34539;-74
2022/10/09 08:48:52;;;;;;;11.40;7.60;;;;;;;20.92;53.08;100535.41;4471301;32;34201;-73
2022/10/09 08:51:25;;;;;;;9.95;7.35;;;;;;;20.70;53.57;100533.25;4484733;32;33825;-74
2022/10/09 08:53:58;;;;;;;9.77;6.80;;;;;;;20.64;53.80;100539.94;4471023;32;34045;-74
2022/10/09 08:56:26;;;;;;;13.15;6.30;;;;;;;20.37;54.10;100551.59;4471067;32;34662;-75
2022/10/09 08:58:53;;;;;;;10.15;6.78;;;;;;;20.37;52.91;100546.91;4486241;31;34406;-74
2022/10/09 09:01:30;;;;;;;8.70;6.45;;;;;;;21.11;51.21;100546.44;4486293;31;33724;-75
2022/10/09 09:04:24;;;;;;;8.60;6.07;;;;;;;21.21;52.10;100549.03;4486631;31;34922;-74
2022/10/09 09:06:56;;;;;;;8.82;5.68;;;;;;;21.95;48.56;100542.81;4500210;31;34533;-76
2022/10/09 09:09:49;;;;;;;9.85;5.72;;;;;;;20.44;51.46;100546.53;4500988;31;33399;-77
2022/10/09 09:12:45;;;;;;;7.55;5.43;;;;;;;21.30;48.62;100550.00;4500853;31;34167;-73
2022/10/09 09:15:22;;;;;;;8.98;4.57;;;;;;;21.51;48.37;100552.41;4486759;31;34183;-74
2022/10/09 09:18:05;;;;;;;6.32;4.85;;;;;;;21.75;46.78;100552.28;4500672;31;33938;-75
2022/10/09 09:20:42;;;;;;;7.37;4.90;;;;;;;21.67;46.82;100558.50;4485888;31;34005;-73
2022/10/09 09:23:13;;;;;;;6.43;4.75;;;;;;;21.49;47.71;100560.22;4486452;31;33417;-74
2022/10/09 09:25:44;;;;;;;6.25;4.50;;;;;;;21.45;49.60;100570.22;4486548;31;34273;-74
2022/10/09 09:28:25;;;;;;;7.80;4.80;;;;;;;21.21;49.28;100560.06;4500685;31;33613;-76
2022/10/09 09:30:56;;;;;;;7.00;4.87;;;;;;;21.23;49.77;100565.28;4481501;31;34556;-74
2022/10/09 09:33:47;;;;;;;6.50;4.45;;;;;;;20.74;49.87;100561.06;4502043;31;34578;-74
2022/10/09 09:36:29;;;;;;;6.80;4.93;;;;;;;21.35;48.25;100560.13;4503927;31;34300;-74
2022/10/09 09:38:57;;;;;;;6.12;4.47;;;;;;;20.56;51.11;100566.22;4516712;31;33708;-78
2022/10/09 09:41:45;;;;;;;6.40;4.60;;;;;;;20.30;49.96;100565.69;4509629;31;33340;-77
2022/10/09 09:44:14;;;;;;;6.32;4.78;;;;;;;21.00;49.39;100576.13;4500802;31;34077;-73
2022/10/09 09:46:42;;;;;;;6.68;4.60;;;;;;;21.05;48.41;100566.94;4486395;31;34160;-77
2022/10/09 09:49:28;;;;;;;6.30;5.00;;;;;;;21.68;47.87;100569.25;4500231;31;34891;-75
2022/10/09 09:51:57;;;;;;;7.43;4.40;;;;;;;21.28;48.59;100567.97;4486088;31;33234;-75
2022/10/09 09:54:27;;;;;;;9.00;5.43;;;;;;;22.17;46.86;100563.38;4486124;31;34726;-77
2022/10/09 09:56:59;;;;;;;6.32;4.95;;;;;;;21.27;48.26;100563.56;4500439;31;34321;-77
2022/10/09 09:59:42;;;;;;;5.47;4.30;;;;;;;20.92;49.13;100562.19;4488023;31;33702;-73
2022/10/09 10:02:19;;;;;;;7.10;4.37;;;;;;;20.43;48.71;100567.78;4500184;31;34333;-78
2022/10/09 10:04:55;;;;;;;6.40;4.50;;;;;;;21.26;47.57;100572.97;4482775;31;33830;-72
2022/10/09 10:07:30;;;;;;;7.28;4.70;;;;;;;20.68;48.83;100571.31;4500200;31;33860;-80
2022/10/09 10:10:08;;;;;;;6.28;4.50;;;;;;;21.11;48.68;100571.28;4485988;31;34083;-75
2022/10/09 10:12:43;;;;;;;7.87;4.57;;;;;;;20.46;49.41;100571.88;4499601;31;34425;-79
2022/10/09 10:15:37;;;;;;;6.68;4.65;;;;;;;20.63;50.00;100583.25;4500482;31;33512;-73
2022/10/09 10:18:06;;;;;;;7.43;4.68;;;;;;;21.17;48.59;100583.06;4496525;31;34313;-71
2022/10/09 10:20:55;;;;;;;7.18;5.28;;;;;;;21.07;48.86;100575.75;4493525;31;34995;-71
2022/10/09 10:23:47;;;;;;;6.07;4.10;;;;;;;20.28;50.19;100577.03;4484483;31;34347;-72
2022/10/09 10:26:37;;;;;;;6.45;4.55;;;;;;;20.16;50.20;100573.88;4484407;32;34597;-75
2022/10/09 10:29:15;;;;;;;7.22;4.60;;;;;;;20.54;51.59;100581.41;4484612;31;34966;-72
2022/10/09 10:32:09;;;;;;;7.30;4.30;;;;;;;20.84;49.07;100581.03;4496113;31;34089;-78
2022/10/09 10:34:49;;;;;;;6.43;4.50;;;;;;;20.52;49.76;100581.72;4487482;31;33814;-73
2022/10/09 10:38:17;;;;;;;5.37;4.05;;;;;;;19.93;49.75;100574.66;4498634;31;33778;-76
2022/10/09 10:40:54;;;;;;;7.35;3.78;;;;;;;20.37;49.67;100579.16;4405396;32;33812;-76
2022/10/09 10:43:42;;;;;;;5.07;3.55;;;;;;;20.74;46.83;100583.13;4417669;32;33727;-75
2022/10/09 10:46:22;;;;;;;7.45;4.00;;;;;;;20.47;46.95;100577.09;4485258;31;33435;-74
2022/10/09 10:48:50;;;;;;;5.32;3.72;;;;;;;20.12;47.69;100585.75;4498450;31;34117;-75
2022/10/09 10:51:30;;;;;;;5.30;4.18;;;;;;;20.16;50.19;100582.13;4485174;31;33837;-75
2022/10/09 10:54:12;;;;;;;5.65;3.80;;;;;;;20.64;48.21;100582.13;4484555;31;33721;-75
2022/10/09 10:56:44;;;;;;;6.30;3.90;;;;;;;20.57;48.84;100576.16;4499300;31;34320;-74
2022/10/09 10:59:29;;;;;;;4.87;3.37;;;;;;;21.28;46.50;100576.25;4485593;31;34115;-74
2022/10/09 11:02:09;;;;;;;5.40;4.10;;;;;;;20.81;48.12;100578.06;4485594;31;35166;-73
2022/10/09 11:05:17;;;;;;;5.57;3.50;;;;;;;21.07;45.65;100568.28;4499817;31;34677;-73
2022/10/09 11:08:11;;;;;;;6.28;3.20;;;;;;;20.59;46.37;100564.84;4485469;31;34246;-74
2022/10/09 11:11:07;;;;;;;6.28;3.90;;;;;;;20.88;47.74;100561.94;4499674;31;33999;-72
2022/10/09 11:14:00;;;;;;;7.30;3.97;;;;;;;20.64;47.10;100560.06;4488640;31;34227;-74
2022/10/09 11:16:43;;;;;;;5.90;3.45;;;;;;;20.64;46.88;100554.53;4501307;31;34172;-72
2022/10/09 11:19:41;;;;;;;4.60;3.20;;;;;;;20.83;47.90;100560.09;4501436;31;34681;-73
2022/10/09 11:22:34;;;;;;;7.22;3.67;;;;;;;21.45;46.29;100562.75;4500330;31;34714;-74
2022/10/09 11:25:15;;;;;;;7.65;4.72;;;;;;;20.33;47.92;100564.31;4487298;31;35357;-75
2022/10/09 11:27:58;;;;;;;6.65;4.05;;;;;;;20.93;46.05;100558.28;4501888;31;33992;-72
2022/10/09 11:30:27;;;;;;;5.70;4.05;;;;;;;20.81;46.60;100554.03;4487428;31;33531;-74
2022/10/09 11:33:04;;;;;;;6.30;3.92;;;;;;;21.15;44.84;100555.75;4487450;31;34810;-75
2022/10/09 11:35:48;;;;;;;5.60;4.18;;;;;;;20.60;46.79;100547.16;4487331;31;34958;-75
2022/10/09 11:38:24;;;;;;;7.17;4.13;;;;;;;20.96;45.70;100555.75;4501709;31;33933;-76
2022/10/09 11:40:52;;;;;;;6.72;3.92;;;;;;;20.96;47.08;100557.72;4501329;31;33320;-74